Time;durP1;ratioP1;P1;durP2;ratioP2;P2;SDS_P1;SDS_P2;PMS_P1;PMS_P2;Temp;Humidity;BMP_temperature;BMP_pressure;BME280_temperature;BME280_humidity;BME280_pressure;Samples;Min_cycle;Max_cycle;Signal;HPM_P1;HPM_P2
2023/08/23 00:01:12;;;;;;;8.07;6.68;;;19.20;99.90;;;;;;5066867;28;20057;-52
2023/08/23 00:03:38;;;;;;;8.52;6.47;;;19.10;99.90;;;;;;5066612;28;20040;-52
2023/08/23 00:06:04;;;;;;;8.48;6.53;;;19.00;99.90;;;;;;5066886;28;20492;-51
2023/08/23 00:08:30;;;;;;;8.18;6.40;;;19.00;99.90;;;;;;5068726;28;20037;-49
2023/08/23 00:10:55;;;;;;;9.45;6.07;;;18.90;99.90;;;;;;5067458;28;20109;-53
2023/08/23 00:13:22;;;;;;;8.00;7.07;;;18.90;99.90;;;;;;5068117;28;20032;-49
2023/08/23 00:15:48;;;;;;;21.73;6.93;;;18.80;99.90;;;;;;5099390;28;20048;-51
2023/08/23 00:18:13;;;;;;;12.45;5.50;;;18.80;99.90;;;;;;5068979;28;20181;-50
2023/08/23 00:20:39;;;;;;;46.72;5.55;;;18.80;99.90;;;;;;5067901;28;20032;-51
2023/08/23 00:23:05;;;;;;;12.50;4.93;;;18.70;99.90;;;;;;5065401;28;20109;-51
2023/08/23 00:25:30;;;;;;;40.60;4.45;;;18.60;99.90;;;;;;5066500;28;20040;-49
2023/08/23 00:27:56;;;;;;;21.80;3.95;;;18.50;99.90;;;;;;5066935;28;20168;-52
2023/08/23 00:30:22;;;;;;;11.10;3.97;;;18.40;99.90;;;;;;5067276;28;20043;-51
2023/08/23 00:32:48;;;;;;;7.43;3.80;;;18.50;99.90;;;;;;5064802;28;20074;-52
2023/08/23 00:35:13;;;;;;;5.00;3.80;;;18.40;99.90;;;;;;5067649;28;20484;-51
2023/08/23 00:37:39;;;;;;;5.90;4.85;;;18.30;99.90;;;;;;5066136;28;20040;-50
2023/08/23 00:40:09;;;;;;;7.30;4.80;;;18.30;99.90;;;;;;5085070;28;20105;-52
2023/08/23 00:42:35;;;;;;;12.27;5.07;;;18.30;99.90;;;;;;5068482;28;20048;-50
2023/08/23 00:45:01;;;;;;;13.38;5.40;;;18.20;99.90;;;;;;5066796;28;20044;-51
2023/08/23 00:47:26;;;;;;;8.40;4.88;;;18.20;99.90;;;;;;5068381;28;20040;-50
2023/08/23 00:49:52;;;;;;;10.30;4.88;;;18.10;99.90;;;;;;5066131;28;20082;-48
2023/08/23 00:52:18;;;;;;;10.93;5.10;;;18.00;99.90;;;;;;5068003;28;20064;-51
2023/08/23 00:54:45;;;;;;;8.40;5.70;;;17.90;99.90;;;;;;5066400;28;20036;-51
2023/08/23 00:57:11;;;;;;;23.60;5.55;;;18.00;99.90;;;;;;5067713;28;20063;-50
2023/08/23 00:59:37;;;;;;;38.50;6.20;;;17.90;99.90;;;;;;5067796;28;20044;-50
2023/08/23 01:02:03;;;;;;;36.40;6.80;;;17.90;99.90;;;;;;5065837;28;20594;-50
2023/08/23 01:04:29;;;;;;;13.98;6.40;;;17.80;99.90;;;;;;5068485;28;20036;-51
2023/08/23 01:07:07;;;;;;;9.00;7.00;;;17.80;99.90;;;;;;5067322;28;20142;-51
2023/08/23 01:10:14;;;;;;;8.98;7.28;;;17.80;99.90;;;;;;5067354;28;20047;-50
2023/08/23 01:12:48;;;;;;;8.77;6.50;;;17.80;99.90;;;;;;5063722;28;20044;-50
2023/08/23 01:15:14;;;;;;;8.20;6.95;;;17.70;99.90;;;;;;5066690;28;20097;-50
2023/08/23 01:17:42;;;;;;;10.32;7.35;;;17.70;99.90;;;;;;5066299;28;20525;-50
2023/08/23 01:20:11;;;;;;;9.65;7.22;;;17.70;99.90;;;;;;5065486;28;20084;-51
2023/08/23 01:22:41;;;;;;;7.97;6.70;;;17.70;99.90;;;;;;5065485;28;20114;-50
2023/08/23 01:25:08;;;;;;;7.43;5.90;;;17.70;99.90;;;;;;5065579;28;20545;-51
2023/08/23 01:27:34;;;;;;;8.73;5.45;;;17.70;99.90;;;;;;5065456;28;20379;-51
2023/08/23 01:30:00;;;;;;;9.65;5.78;;;17.60;99.90;;;;;;5065038;28;20123;-50
2023/08/23 01:32:48;;;;;;;8.70;5.95;;;17.60;99.90;;;;;;5066223;28;20111;-53
2023/08/23 01:35:28;;;;;;;8.18;5.97;;;17.70;99.90;;;;;;5065611;28;20038;-52
2023/08/23 01:37:55;;;;;;;7.55;6.60;;;17.60;99.90;;;;;;5064800;28;20111;-51
2023/08/23 01:40:22;;;;;;;9.40;6.28;;;17.60;99.90;;;;;;5065302;28;20041;-52
2023/08/23 01:42:50;;;;;;;8.40;7.07;;;17.50;99.90;;;;;;5067137;28;20046;-48
2023/08/23 01:45:16;;;;;;;8.57;7.20;;;17.50;99.90;;;;;;5065518;28;20037;-50
2023/08/23 01:47:41;;;;;;;11.20;9.52;;;17.40;99.90;;;;;;5067067;28;20048;-50
2023/08/23 01:50:08;;;;;;;11.80;9.48;;;17.40;99.90;;;;;;5065802;28;20049;-51
2023/08/23 01:52:33;;;;;;;10.77;9.10;;;17.40;99.90;;;;;;5067578;28;20094;-51
2023/08/23 01:54:59;;;;;;;12.13;9.52;;;17.40;99.90;;;;;;5065899;28;20422;-50
2023/08/23 01:57:25;;;;;;;11.77;10.45;;;17.30;99.90;;;;;;5063573;28;20041;-52
2023/08/23 01:59:52;;;;;;;11.10;9.90;;;17.30;99.90;;;;;;5064412;28;20575;-52
2023/08/23 02:02:17;;;;;;;11.43;10.15;;;17.30;99.90;;;;;;5064780;28;20080;-52
2023/08/23 02:04:43;;;;;;;14.52;10.32;;;17.30;99.90;;;;;;5066661;28;20079;-52
2023/08/23 02:07:09;;;;;;;12.35;10.27;;;17.30;99.90;;;;;;5066189;28;20040;-51
2023/08/23 02:09:34;;;;;;;10.80;9.60;;;17.20;99.90;;;;;;5068460;28;20036;-49
2023/08/23 02:12:00;;;;;;;12.30;10.85;;;17.20;99.90;;;;;;5064405;28;20102;-50
2023/08/23 02:14:26;;;;;;;12.80;11.20;;;17.30;99.90;;;;;;5049429;28;20042;-49
2023/08/23 02:16:52;;;;;;;12.38;10.52;;;17.20;99.90;;;;;;5066258;28;20094;-49
2023/08/23 02:19:17;;;;;;;13.25;10.52;;;17.30;99.90;;;;;;5066104;28;20051;-52
2023/08/23 02:21:43;;;;;;;12.80;10.55;;;17.30;99.90;;;;;;5066819;28;20044;-49
2023/08/23 02:24:09;;;;;;;11.38;9.73;;;17.20;99.90;;;;;;5069774;28;20036;-49
2023/08/23 02:26:38;;;;;;;11.82;10.50;;;17.20;99.90;;;;;;5071389;28;20524;-50
2023/08/23 02:29:04;;;;;;;12.32;10.13;;;17.20;99.90;;;;;;5069001;28;20037;-53
2023/08/23 02:31:30;;;;;;;12.32;10.05;;;17.20;99.90;;;;;;5069126;28;20029;-50
2023/08/23 02:33:56;;;;;;;12.07;9.48;;;17.10;99.90;;;;;;5068598;28;20464;-53
2023/08/23 02:36:21;;;;;;;10.75;9.65;;;17.20;99.90;;;;;;5066672;28;20067;-49
2023/08/23 02:38:47;;;;;;;10.73;9.63;;;17.20;99.90;;;;;;5069533;28;20044;-53
2023/08/23 02:41:13;;;;;;;13.07;9.90;;;17.10;99.90;;;;;;5068806;28;20132;-49
2023/08/23 02:43:39;;;;;;;12.15;10.15;;;17.10;99.90;;;;;;5068063;28;20460;-52
2023/08/23 02:46:04;;;;;;;14.93;10.85;;;17.10;99.90;;;;;;5069543;28;20040;-49
2023/08/23 02:48:30;;;;;;;12.15;10.57;;;17.10;99.90;;;;;;5070056;28;20083;-52
2023/08/23 02:50:56;;;;;;;14.95;11.15;;;17.10;99.90;;;;;;5067423;28;20059;-53
2023/08/23 02:53:22;;;;;;;13.43;11.32;;;17.20;99.90;;;;;;5069093;28;20032;-52
2023/08/23 02:55:50;;;;;;;12.82;11.15;;;17.10;99.90;;;;;;5068756;28;20090;-50
2023/08/23 02:58:16;;;;;;;13.73;10.45;;;17.10;99.90;;;;;;5069902;28;20029;-49
2023/08/23 03:00:42;;;;;;;12.75;10.65;;;17.00;99.90;;;;;;5070142;28;20057;-50
2023/08/23 03:03:07;;;;;;;12.35;10.82;;;17.00;99.90;;;;;;5068590;28;20078;-50
2023/08/23 03:05:33;;;;;;;12.52;10.65;;;17.00;99.90;;;;;;5070607;28;20044;-52
2023/08/23 03:07:59;;;;;;;12.65;10.38;;;16.90;99.90;;;;;;5067405;28;20044;-50
2023/08/23 03:10:24;;;;;;;12.70;10.43;;;16.90;99.90;;;;;;5069132;28;20043;-51
2023/08/23 03:12:50;;;;;;;14.65;11.18;;;16.90;99.90;;;;;;5069899;28;20093;-48
2023/08/23 03:15:16;;;;;;;11.93;9.85;;;16.90;99.90;;;;;;5067288;28;20055;-52
2023/08/23 03:17:41;;;;;;;12.20;10.05;;;16.90;99.90;;;;;;5069452;28;20119;-51
2023/08/23 03:20:07;;;;;;;13.80;10.63;;;16.90;99.90;;;;;;5070262;28;21078;-51
2023/08/23 03:22:33;;;;;;;12.05;10.25;;;16.90;99.90;;;;;;5068500;28;20044;-51
2023/08/23 03:24:59;;;;;;;11.82;9.63;;;16.90;99.90;;;;;;5069258;28;20044;-51
2023/08/23 03:27:25;;;;;;;11.50;10.15;;;16.90;99.90;;;;;;5066019;28;20044;-50
2023/08/23 03:29:51;;;;;;;13.27;10.07;;;16.90;99.90;;;;;;5068507;28;20044;-50
2023/08/23 03:32:19;;;;;;;11.43;9.50;;;16.90;99.90;;;;;;5066849;28;21104;-49
2023/08/23 03:34:45;;;;;;;10.50;8.48;;;16.80;99.90;;;;;;5067066;28;20040;-53
2023/08/23 03:37:10;;;;;;;13.15;10.65;;;16.90;99.90;;;;;;5068053;28;20495;-51
2023/08/23 03:39:37;;;;;;;12.02;10.20;;;16.80;99.90;;;;;;5070803;28;20036;-51
2023/08/23 03:42:03;;;;;;;11.15;9.13;;;16.80;99.90;;;;;;5068530;28;20052;-50
2023/08/23 03:44:29;;;;;;;11.65;9.80;;;16.80;99.90;;;;;;5067647;28;20040;-50
2023/08/23 03:46:58;;;;;;;12.60;10.57;;;16.70;99.90;;;;;;5067459;28;20502;-51
2023/08/23 03:49:24;;;;;;;14.15;10.65;;;16.70;99.90;;;;;;5067182;28;20165;-51
2023/08/23 03:51:50;;;;;;;11.65;9.77;;;16.70;99.90;;;;;;5065941;28;20535;-53
2023/08/23 03:54:17;;;;;;;11.43;9.85;;;16.60;99.90;;;;;;5068837;28;20041;-51
2023/08/23 03:56:43;;;;;;;11.77;9.50;;;16.60;99.90;;;;;;5068556;28;20040;-51
2023/08/23 03:59:09;;;;;;;10.60;9.38;;;16.50;99.90;;;;;;5066198;28;20049;-51
2023/08/23 04:01:34;;;;;;;11.57;8.75;;;16.50;99.90;;;;;;5066516;28;20109;-52
2023/08/23 04:04:00;;;;;;;10.52;9.18;;;16.50;99.90;;;;;;5069325;28;20076;-51
2023/08/23 04:06:26;;;;;;;11.82;9.63;;;16.50;99.90;;;;;;5068556;28;20144;-50
2023/08/23 04:08:51;;;;;;;10.75;9.15;;;16.50;99.90;;;;;;5067527;28;20054;-52
2023/08/23 04:11:17;;;;;;;11.73;9.02;;;16.50;99.90;;;;;;5066643;28;20516;-52
2023/08/23 04:13:43;;;;;;;11.20;9.48;;;16.50;99.90;;;;;;5069141;28;20086;-50
2023/08/23 04:16:11;;;;;;;10.77;9.13;;;16.50;99.90;;;;;;5067999;28;20036;-51
2023/08/23 04:18:37;;;;;;;14.57;9.52;;;16.40;99.90;;;;;;5068600;28;20032;-51
2023/08/23 04:21:02;;;;;;;9.98;8.75;;;16.40;99.90;;;;;;5066897;28;20043;-53
2023/08/23 04:23:28;;;;;;;11.40;9.52;;;16.40;99.90;;;;;;5066916;28;20492;-48
2023/08/23 04:25:54;;;;;;;11.13;8.98;;;16.40;99.90;;;;;;5066429;28;20036;-51
2023/08/23 04:28:20;;;;;;;12.52;9.07;;;16.30;99.90;;;;;;5068634;28;20040;-50
2023/08/23 04:30:45;;;;;;;10.35;8.93;;;16.30;99.90;;;;;;5067157;28;20033;-53
2023/08/23 04:33:11;;;;;;;11.23;7.85;;;16.40;99.90;;;;;;5067264;28;20060;-51
2023/08/23 04:35:37;;;;;;;12.50;9.35;;;16.30;99.90;;;;;;5065604;28;20032;-51
2023/08/23 04:38:04;;;;;;;9.00;8.07;;;16.20;99.90;;;;;;5064845;28;20455;-52
2023/08/23 04:40:30;;;;;;;9.15;7.85;;;16.30;99.90;;;;;;5066737;28;20055;-51
2023/08/23 04:42:56;;;;;;;10.13;6.90;;;16.20;99.90;;;;;;5066094;28;20028;-53
2023/08/23 04:45:21;;;;;;;10.68;8.85;;;16.20;99.90;;;;;;5066956;28;20055;-47
2023/08/23 04:47:47;;;;;;;8.63;6.90;;;16.20;99.90;;;;;;5066548;28;20036;-52
2023/08/23 04:50:13;;;;;;;10.35;7.60;;;16.20;99.90;;;;;;5065938;28;20063;-47
2023/08/23 04:52:39;;;;;;;8.38;7.10;;;16.30;99.90;;;;;;5068064;28;20120;-53
2023/08/23 04:55:05;;;;;;;8.30;6.65;;;16.30;99.90;;;;;;5068202;28;20060;-52
2023/08/23 04:57:31;;;;;;;7.57;6.53;;;16.20;99.90;;;;;;5067741;28;20068;-51
2023/08/23 04:59:57;;;;;;;9.02;6.95;;;16.10;99.90;;;;;;5066427;28;20098;-51
2023/08/23 05:02:23;;;;;;;10.30;8.00;;;16.00;99.90;;;;;;5066672;28;20060;-49
2023/08/23 05:04:49;;;;;;;8.35;7.43;;;16.10;99.90;;;;;;5067766;28;20044;-50
2023/08/23 05:07:14;;;;;;;10.02;7.65;;;16.00;99.90;;;;;;5065680;28;20044;-52
2023/08/23 05:09:40;;;;;;;7.75;6.95;;;16.10;99.90;;;;;;5051097;28;20045;-51
2023/08/23 05:12:06;;;;;;;8.50;7.53;;;16.00;99.90;;;;;;5067848;28;20048;-52
2023/08/23 05:14:32;;;;;;;8.85;7.40;;;16.00;99.90;;;;;;5050996;28;20042;-49
2023/08/23 05:16:58;;;;;;;9.65;7.75;;;16.00;99.90;;;;;;5051201;28;20541;-51
2023/08/23 05:19:24;;;;;;;9.57;7.50;;;15.90;99.90;;;;;;5068291;28;20482;-51
2023/08/23 05:21:50;;;;;;;8.13;7.00;;;16.00;99.90;;;;;;5065521;28;20040;-51
2023/08/23 05:24:15;;;;;;;7.90;7.00;;;15.90;99.90;;;;;;5066458;28;20051;-52
2023/08/23 05:26:41;;;;;;;11.68;8.30;;;15.90;99.90;;;;;;5066173;28;20169;-52
2023/08/23 05:29:07;;;;;;;9.82;7.75;;;15.90;99.90;;;;;;5066688;28;20051;-50
2023/08/23 05:31:33;;;;;;;9.80;7.63;;;15.90;99.90;;;;;;5064931;28;20032;-53
2023/08/23 05:33:58;;;;;;;9.60;7.90;;;15.90;99.90;;;;;;5066545;28;20036;-51
2023/08/23 05:36:24;;;;;;;10.48;7.68;;;15.90;99.90;;;;;;5066018;28;20051;-52
2023/08/23 05:38:50;;;;;;;8.82;7.90;;;15.90;99.90;;;;;;5064624;28;20041;-50
2023/08/23 05:41:16;;;;;;;11.25;8.27;;;16.00;99.90;;;;;;5066396;28;20032;-48
2023/08/23 05:43:41;;;;;;;10.40;7.95;;;16.10;99.90;;;;;;5065335;28;20047;-51
2023/08/23 05:46:07;;;;;;;11.30;8.48;;;16.10;99.90;;;;;;5066376;28;20420;-51
2023/08/23 05:48:35;;;;;;;11.25;8.30;;;16.20;99.90;;;;;;5067852;28;20040;-50
2023/08/23 05:51:04;;;;;;;10.73;8.23;;;16.20;99.90;;;;;;5068326;28;20032;-49
2023/08/23 05:53:30;;;;;;;9.80;8.80;;;16.30;99.90;;;;;;5064772;28;20071;-52
2023/08/23 05:55:56;;;;;;;11.65;9.20;;;16.30;99.90;;;;;;5067163;28;20040;-50
2023/08/23 05:58:22;;;;;;;12.27;9.43;;;16.30;99.90;;;;;;5071124;28;20039;-51
2023/08/23 06:00:48;;;;;;;11.02;8.68;;;16.40;99.90;;;;;;5070914;28;20055;-53
2023/08/23 06:03:15;;;;;;;11.70;9.18;;;16.30;99.90;;;;;;5069914;28;20456;-51
2023/08/23 06:05:41;;;;;;;11.65;8.65;;;16.50;99.90;;;;;;5069578;28;20052;-51
2023/08/23 06:08:10;;;;;;;11.93;9.30;;;16.50;99.90;;;;;;5070176;28;20145;-52
2023/08/23 06:10:36;;;;;;;12.27;10.07;;;16.60;99.90;;;;;;5068427;28;20476;-52
2023/08/23 06:13:02;;;;;;;13.50;10.00;;;16.70;99.90;;;;;;5069454;28;20047;-52
2023/08/23 06:15:28;;;;;;;11.85;9.80;;;16.80;99.90;;;;;;5070009;28;20044;-53
2023/08/23 06:17:55;;;;;;;12.60;10.30;;;16.90;99.90;;;;;;5069109;28;20044;-52
2023/08/23 06:20:21;;;;;;;11.30;10.10;;;16.90;99.90;;;;;;5071121;28;20468;-47
2023/08/23 06:22:47;;;;;;;11.93;10.63;;;17.00;99.90;;;;;;5069568;28;20040;-50
2023/08/23 06:25:12;;;;;;;12.82;10.65;;;17.00;99.90;;;;;;5067884;28;20544;-53
2023/08/23 06:27:38;;;;;;;12.73;9.82;;;17.10;99.90;;;;;;5068760;28;20048;-50
2023/08/23 06:30:05;;;;;;;12.40;10.52;;;17.00;99.90;;;;;;5068258;28;20392;-51
2023/08/23 06:32:31;;;;;;;13.40;10.63;;;17.20;99.90;;;;;;5069489;28;20404;-50
2023/08/23 06:34:57;;;;;;;13.40;10.77;;;17.10;99.90;;;;;;5069328;28;20048;-51
2023/08/23 06:37:22;;;;;;;13.98;11.55;;;17.20;99.90;;;;;;5069756;28;20037;-52
2023/08/23 06:39:49;;;;;;;15.93;12.15;;;17.20;99.90;;;;;;5068240;28;20040;-50
2023/08/23 06:42:17;;;;;;;14.18;11.65;;;17.20;99.90;;;;;;5068258;28;20037;-49
2023/08/23 06:44:43;;;;;;;13.63;12.23;;;17.30;99.90;;;;;;5066905;28;20080;-52
2023/08/23 06:47:09;;;;;;;15.85;12.50;;;17.40;99.90;;;;;;5069455;28;20062;-53
2023/08/23 06:49:35;;;;;;;13.95;11.38;;;17.50;99.90;;;;;;5053794;28;20052;-52
2023/08/23 06:52:01;;;;;;;15.10;12.10;;;17.60;99.90;;;;;;5069715;28;20028;-52
2023/08/23 06:54:27;;;;;;;14.13;12.43;;;17.70;99.90;;;;;;5070669;28;20033;-53
2023/08/23 06:56:53;;;;;;;14.15;11.68;;;17.70;99.90;;;;;;5067796;28;20047;-50
2023/08/23 06:59:18;;;;;;;14.82;11.75;;;17.70;99.90;;;;;;5069321;28;20426;-50
2023/08/23 07:01:45;;;;;;;14.93;12.20;;;17.90;99.90;;;;;;5068593;28;20136;-50
2023/08/23 07:04:11;;;;;;;12.27;10.98;;;17.90;99.90;;;;;;5067780;28;20055;-51
2023/08/23 07:06:37;;;;;;;13.55;10.85;;;18.00;99.90;;;;;;5068482;28;20044;-51
2023/08/23 07:09:03;;;;;;;14.45;12.30;;;18.20;99.90;;;;;;5068772;28;20041;-53
2023/08/23 07:11:29;;;;;;;13.90;10.90;;;18.30;99.90;;;;;;5067614;28;20043;-51
2023/08/23 07:13:55;;;;;;;13.52;11.35;;;18.40;99.90;;;;;;5069568;28;20044;-51
2023/08/23 07:16:21;;;;;;;15.38;11.30;;;18.40;99.90;;;;;;5069085;28;20040;-51
2023/08/23 07:18:46;;;;;;;13.02;11.30;;;18.40;99.90;;;;;;5068065;28;20032;-49
2023/08/23 07:21:12;;;;;;;12.77;10.25;;;18.30;99.90;;;;;;5067486;28;20488;-52
2023/08/23 07:23:38;;;;;;;14.00;11.02;;;18.30;99.90;;;;;;5066981;28;20040;-52
2023/08/23 07:26:04;;;;;;;12.50;11.20;;;18.40;99.90;;;;;;5066487;28;20036;-52
2023/08/23 07:28:30;;;;;;;15.27;11.05;;;18.40;99.90;;;;;;5067567;28;20095;-52
2023/08/23 07:30:58;;;;;;;13.90;11.45;;;18.50;99.90;;;;;;5067289;28;20040;-52
2023/08/23 07:33:25;;;;;;;15.15;11.07;;;18.60;99.90;;;;;;5069076;28;20033;-53
2023/08/23 07:35:59;;;;;;;14.20;12.38;;;18.60;99.90;;;;;;5065151;28;20047;-48
2023/08/23 07:38:26;;;;;;;14.73;11.18;;;18.70;99.90;;;;;;5065945;28;20124;-52
2023/08/23 07:41:03;;;;;;;14.20;11.32;;;18.80;99.90;;;;;;5068810;28;20033;-52
2023/08/23 07:43:29;;;;;;;14.70;11.27;;;18.80;99.90;;;;;;5067537;28;20059;-53
2023/08/23 07:46:00;;;;;;;13.70;10.68;;;18.90;99.90;;;;;;5068296;28;20119;-52
2023/08/23 07:48:26;;;;;;;13.13;11.35;;;19.00;99.90;;;;;;5053346;28;20048;-52
2023/08/23 07:50:55;;;;;;;14.63;12.57;;;19.00;99.90;;;;;;5069097;28;20087;-52
2023/08/23 07:53:22;;;;;;;15.43;12.57;;;19.00;99.90;;;;;;5066526;28;20045;-50
2023/08/23 07:55:48;;;;;;;16.38;12.50;;;19.10;99.90;;;;;;5068918;28;20038;-49
2023/08/23 07:58:14;;;;;;;14.90;12.50;;;19.20;99.90;;;;;;5067170;28;20478;-50
2023/08/23 08:00:40;;;;;;;18.92;12.82;;;19.20;99.90;;;;;;5066309;28;20043;-53
2023/08/23 08:03:06;;;;;;;15.13;11.55;;;19.30;99.90;;;;;;5067209;28;20140;-52
2023/08/23 08:05:35;;;;;;;13.70;10.82;;;19.40;99.90;;;;;;5069033;28;20071;-51
2023/08/23 08:08:04;;;;;;;14.88;11.05;;;19.40;99.90;;;;;;5067410;28;20466;-53
2023/08/23 08:10:30;;;;;;;15.35;11.48;;;19.50;99.90;;;;;;5065889;28;20041;-51
2023/08/23 08:12:58;;;;;;;17.20;11.50;;;19.60;99.90;;;;;;5070222;28;20089;-51
2023/08/23 08:15:25;;;;;;;19.85;11.75;;;19.70;99.90;;;;;;5065922;28;20364;-52
2023/08/23 08:17:52;;;;;;;14.55;10.68;;;19.70;99.90;;;;;;5068356;28;20040;-51
2023/08/23 08:20:18;;;;;;;15.13;10.68;;;19.80;99.90;;;;;;5068103;28;20048;-50
2023/08/23 08:22:45;;;;;;;17.23;10.82;;;19.80;99.90;;;;;;5068422;28;20071;-51
2023/08/23 08:25:11;;;;;;;14.73;10.05;;;19.90;99.90;;;;;;5067826;28;20479;-53
2023/08/23 08:27:37;;;;;;;14.45;10.60;;;19.90;99.90;;;;;;5066032;28;20049;-52
2023/08/23 08:30:03;;;;;;;14.70;10.70;;;20.00;99.90;;;;;;5066818;28;20060;-53
2023/08/23 08:32:29;;;;;;;12.65;9.82;;;20.10;99.90;;;;;;5067322;28;20036;-52
2023/08/23 08:34:57;;;;;;;16.30;10.80;;;20.10;99.90;;;;;;5066567;28;20479;-49
2023/08/23 08:37:25;;;;;;;16.20;11.23;;;20.30;99.90;;;;;;5065173;28;20039;-53
2023/08/23 08:39:50;;;;;;;13.45;10.32;;;20.30;99.90;;;;;;5067861;28;20067;-52
2023/08/23 08:42:16;;;;;;;16.52;11.73;;;20.40;99.90;;;;;;5066325;28;20039;-53
2023/08/23 08:44:45;;;;;;;13.93;10.20;;;20.40;99.90;;;;;;5065978;28;20209;-51
2023/08/23 08:47:11;;;;;;;16.48;11.15;;;20.50;99.90;;;;;;5065377;28;20075;-53
2023/08/23 08:49:37;;;;;;;14.38;10.07;;;20.60;99.90;;;;;;5067238;28;20040;-53
2023/08/23 08:52:04;;;;;;;13.75;9.65;;;20.60;99.90;;;;;;5065297;28;20036;-53
2023/08/23 08:54:34;;;;;;;11.48;9.55;;;20.70;99.90;;;;;;5066164;28;20102;-50
2023/08/23 08:57:00;;;;;;;11.93;8.25;;;20.80;99.90;;;;;;5067230;28;20095;-53
2023/08/23 08:59:27;;;;;;;10.73;8.00;;;21.00;99.90;;;;;;5067565;28;20384;-50
2023/08/23 09:01:54;;;;;;;14.75;7.68;;;21.00;99.90;;;;;;5063972;28;20424;-49
2023/08/23 09:04:20;;;;;;;10.73;7.03;;;21.10;99.90;;;;;;5068101;28;20127;-52
2023/08/23 09:06:47;;;;;;;12.07;7.80;;;21.20;99.90;;;;;;5065481;28;20143;-53
2023/08/23 09:09:13;;;;;;;8.73;6.70;;;21.30;99.90;;;;;;5068134;28;20040;-50
2023/08/23 09:11:39;;;;;;;11.73;6.78;;;21.50;99.90;;;;;;5065063;28;20036;-51
2023/08/23 09:14:20;;;;;;;12.65;6.97;;;21.70;99.90;;;;;;5065924;28;20036;-51
2023/08/23 09:16:47;;;;;;;9.35;7.07;;;21.70;99.90;;;;;;5065965;28;20048;-52
2023/08/23 09:19:13;;;;;;;12.55;8.68;;;21.90;99.90;;;;;;5065155;28;20539;-51
2023/08/23 09:21:50;;;;;;;12.43;8.00;;;22.00;99.90;;;;;;5065253;28;20036;-51
2023/08/23 09:24:16;;;;;;;11.05;8.00;;;22.20;99.90;;;;;;5065597;28;20098;-52
2023/08/23 09:26:43;;;;;;;12.35;8.57;;;22.20;99.90;;;;;;5065640;28;20052;-49
2023/08/23 09:29:09;;;;;;;13.20;8.48;;;22.40;99.90;;;;;;5066470;28;20480;-52
2023/08/23 09:31:35;;;;;;;11.65;8.35;;;22.50;99.90;;;;;;5066759;28;20044;-51
2023/08/23 09:34:01;;;;;;;11.02;7.75;;;22.60;99.90;;;;;;5064871;28;20059;-51
2023/08/23 09:36:28;;;;;;;11.48;7.57;;;22.60;99.90;;;;;;5064840;28;20040;-50
2023/08/23 09:38:55;;;;;;;14.13;8.50;;;22.70;99.90;;;;;;5066193;28;20045;-50
2023/08/23 09:41:22;;;;;;;12.60;7.60;;;22.90;99.90;;;;;;5066277;28;20510;-49
2023/08/23 09:43:53;;;;;;;10.65;8.02;;;23.00;99.90;;;;;;5065100;28;20067;-52
2023/08/23 09:46:24;;;;;;;12.30;8.30;;;23.20;99.90;;;;;;5066933;28;20475;-50
2023/08/23 09:48:53;;;;;;;9.52;7.63;;;23.20;99.90;;;;;;5064665;28;20124;-53
2023/08/23 09:51:22;;;;;;;12.52;8.15;;;23.20;99.90;;;;;;5064599;28;20072;-52
2023/08/23 09:53:56;;;;;;;12.98;9.63;;;23.30;99.90;;;;;;5064867;28;20071;-52
2023/08/23 09:56:22;;;;;;;11.90;8.43;;;23.30;99.90;;;;;;5065257;28;20550;-50
2023/08/23 09:58:48;;;;;;;12.60;8.40;;;23.40;99.90;;;;;;5067327;28;20051;-53
2023/08/23 10:01:19;;;;;;;11.65;8.60;;;23.40;99.90;;;;;;5064353;28;20079;-50
2023/08/23 10:03:44;;;;;;;11.35;7.78;;;23.50;99.90;;;;;;5064086;28;20561;-52
2023/08/23 10:06:10;;;;;;;11.60;7.47;;;23.50;99.90;;;;;;5067666;28;20044;-50
2023/08/23 10:08:36;;;;;;;11.27;8.30;;;23.70;99.90;;;;;;5065825;28;20033;-53
2023/08/23 10:11:02;;;;;;;12.10;7.53;;;23.70;99.90;;;;;;5067385;28;20033;-49
2023/08/23 10:13:33;;;;;;;9.73;7.13;;;23.70;99.90;;;;;;5064483;28;20045;-51
2023/08/23 10:16:00;;;;;;;12.05;7.18;;;23.80;99.90;;;;;;5066691;28;20044;-52
2023/08/23 10:18:29;;;;;;;9.18;6.93;;;23.90;99.90;;;;;;5065449;28;20043;-49
2023/08/23 10:20:55;;;;;;;12.77;7.20;;;24.00;99.90;;;;;;5067559;28;20044;-53
2023/08/23 10:23:22;;;;;;;14.38;7.63;;;23.90;99.90;;;;;;5066780;28;20068;-52
2023/08/23 10:25:48;;;;;;;9.23;7.07;;;24.00;99.90;;;;;;5067145;28;20059;-53
2023/08/23 10:28:18;;;;;;;11.77;7.55;;;24.10;99.90;;;;;;5064662;28;20372;-54
2023/08/23 10:30:46;;;;;;;13.45;7.80;;;24.10;99.90;;;;;;5066511;28;20033;-53
2023/08/23 10:33:14;;;;;;;10.75;7.53;;;24.20;99.90;;;;;;5065764;28;20037;-49
2023/08/23 10:35:41;;;;;;;10.50;6.68;;;24.30;99.90;;;;;;5065435;28;20093;-47
2023/08/23 10:38:08;;;;;;;8.98;6.88;;;24.40;99.90;;;;;;5066895;28;20043;-52
2023/08/23 10:40:35;;;;;;;11.32;7.10;;;24.60;99.90;;;;;;5066436;28;20479;-52
2023/08/23 10:43:10;;;;;;;10.40;5.88;;;24.60;99.90;;;;;;5067710;28;20049;-53
2023/08/23 10:45:49;;;;;;;14.73;5.90;;;24.70;99.90;;;;;;5068495;28;20387;-50
2023/08/23 10:48:17;;;;;;;11.13;5.82;;;24.70;99.90;;;;;;5069363;28;20044;-53
2023/08/23 10:50:43;;;;;;;10.68;5.50;;;24.80;99.90;;;;;;5068916;28;20070;-51
2023/08/23 10:53:10;;;;;;;8.77;5.18;;;24.80;99.90;;;;;;5070848;28;20466;-53
2023/08/23 10:55:36;;;;;;;12.10;5.60;;;24.80;99.90;;;;;;5069880;28;20094;-53
2023/08/23 10:58:02;;;;;;;8.13;5.10;;;25.00;99.90;;;;;;5068273;28;20039;-51
2023/08/23 11:00:29;;;;;;;11.50;5.68;;;25.10;99.90;;;;;;5067155;28;20036;-52
2023/08/23 11:02:58;;;;;;;11.95;6.47;;;25.20;99.90;;;;;;5070330;28;20056;-52
2023/08/23 11:05:24;;;;;;;12.55;6.18;;;25.20;99.90;;;;;;5070411;28;20097;-52
2023/08/23 11:07:51;;;;;;;8.63;5.35;;;25.20;99.90;;;;;;5069324;28;20422;-52
2023/08/23 11:10:18;;;;;;;10.98;5.57;;;25.30;99.90;;;;;;5070246;28;20044;-52
2023/08/23 11:12:44;;;;;;;8.48;6.25;;;25.50;99.90;;;;;;5067939;28;20041;-54
2023/08/23 11:15:10;;;;;;;9.50;6.63;;;25.70;99.90;;;;;;5070160;28;20043;-52
2023/08/23 11:17:37;;;;;;;12.63;6.95;;;25.80;99.90;;;;;;5069035;28;20060;-53
2023/08/23 11:20:04;;;;;;;10.15;5.93;;;25.80;99.90;;;;;;5068862;28;20040;-52
2023/08/23 11:22:30;;;;;;;10.82;6.70;;;25.80;99.90;;;;;;5067356;28;20040;-51
2023/08/23 11:24:57;;;;;;;11.52;6.50;;;25.80;99.90;;;;;;5068859;28;20498;-53
2023/08/23 11:27:23;;;;;;;14.82;6.13;;;25.60;99.90;;;;;;5069721;28;20097;-53
2023/08/23 11:29:49;;;;;;;9.38;6.32;;;25.60;99.90;;;;;;5052606;28;20128;-54
2023/08/23 11:32:16;;;;;;;11.25;6.35;;;25.70;99.90;;;;;;5067236;28;20036;-53
2023/08/23 11:34:42;;;;;;;9.57;6.90;;;25.90;99.90;;;;;;5068894;28;20040;-52
2023/08/23 11:37:08;;;;;;;10.88;6.07;;;26.10;99.90;;;;;;5066481;28;20044;-51
2023/08/23 11:39:34;;;;;;;9.00;6.05;;;26.20;99.90;;;;;;5068237;28;20098;-52
2023/08/23 11:42:00;;;;;;;13.50;6.05;;;26.10;99.90;;;;;;5068929;28;20032;-51
2023/08/23 11:44:28;;;;;;;9.85;4.32;;;26.10;99.90;;;;;;5067631;28;20036;-52
2023/08/23 11:46:56;;;;;;;6.80;2.88;;;26.30;99.90;;;;;;5069414;28;20033;-54
2023/08/23 11:49:23;;;;;;;8.93;3.58;;;26.30;99.90;;;;;;5067732;28;20492;-53
2023/08/23 11:51:50;;;;;;;6.82;3.47;;;26.50;99.90;;;;;;5067711;28;20044;-51
2023/08/23 11:54:17;;;;;;;7.07;3.85;;;26.70;99.90;;;;;;5068078;28;20397;-53
2023/08/23 11:56:44;;;;;;;6.35;3.33;;;26.80;99.90;;;;;;5069244;28;20048;-53
2023/08/23 11:59:13;;;;;;;9.15;3.80;;;26.90;99.90;;;;;;5066289;28;20668;-51
2023/08/23 12:01:40;;;;;;;7.60;3.83;;;26.90;99.90;;;;;;5067233;28;20056;-49
2023/08/23 12:04:07;;;;;;;8.30;3.10;;;26.90;99.90;;;;;;5070068;28;20060;-52
2023/08/23 12:06:33;;;;;;;9.15;3.80;;;26.80;99.90;;;;;;5067050;28;20043;-53
2023/08/23 12:08:59;;;;;;;7.55;3.72;;;26.70;99.90;;;;;;5065434;28;20071;-50
2023/08/23 12:11:25;;;;;;;9.63;3.50;;;26.50;99.90;;;;;;5067669;28;20463;-53
2023/08/23 12:13:52;;;;;;;9.27;3.30;;;26.30;99.90;;;;;;5067056;28;20383;-53
2023/08/23 12:16:17;;;;;;;12.75;2.97;;;26.30;99.90;;;;;;5066246;28;20047;-53
2023/08/23 12:18:46;;;;;;;8.98;2.90;;;26.40;99.90;;;;;;5066416;28;20036;-50
2023/08/23 12:21:12;;;;;;;9.82;3.10;;;26.70;99.90;;;;;;5067332;28;20051;-53
2023/08/23 12:23:37;;;;;;;7.47;3.10;;;27.00;99.90;;;;;;5068431;28;20548;-52
2023/08/23 12:26:03;;;;;;;7.40;3.00;;;27.30;99.90;;;;;;5067057;28;20484;-54
2023/08/23 12:28:29;;;;;;;7.93;3.10;;;27.50;99.90;;;;;;5068258;28;20032;-54
2023/08/23 12:30:55;;;;;;;11.10;3.35;;;27.60;99.90;;;;;;5068115;28;20068;-52
2023/08/23 12:33:21;;;;;;;7.00;3.53;;;27.70;99.90;;;;;;5066981;28;20032;-53